Time;durP1;ratioP1;P1;durP2;ratioP2;P2;SDS_P1;SDS_P2;PMS_P1;PMS_P2;Temp;Humidity;BMP_temperature;BMP_pressure;BME280_temperature;BME280_humidity;BME280_pressure;Samples;Min_cycle;Max_cycle;Signal;HPM_P1;HPM_P2
2022/06/14 00:00:55;;;;;;;7.10;1.70;;;12.40;98.50;;;;;;4248407;28;20078;-88
2022/06/14 00:02:57;;;;;;;5.75;1.40;;;12.40;98.50;;;;;;4249044;27;20046;-88
2022/06/14 00:04:58;;;;;;;11.90;2.13;;;12.40;98.50;;;;;;4247721;28;20118;-88
2022/06/14 00:06:59;;;;;;;10.85;2.17;;;12.40;98.60;;;;;;4247903;28;20047;-89
2022/06/14 00:08:59;;;;;;;22.65;2.63;;;12.40;98.60;;;;;;4229719;28;20055;-88
2022/06/14 00:11:06;;;;;;;10.38;1.88;;;12.40;98.80;;;;;;4232330;28;20056;-88
2022/06/14 00:13:08;;;;;;;8.05;1.50;;;12.40;98.80;;;;;;4234232;28;20047;-86
2022/06/14 00:15:10;;;;;;;7.47;1.40;;;12.40;98.70;;;;;;4234235;28;20051;-89
2022/06/14 00:17:11;;;;;;;8.48;1.40;;;12.40;98.70;;;;;;4233984;27;20056;-89
2022/06/14 00:19:12;;;;;;;12.27;1.70;;;12.40;99.10;;;;;;4234035;28;20480;-88
2022/06/14 00:21:14;;;;;;;10.63;1.80;;;12.50;98.90;;;;;;4233981;28;20035;-88
2022/06/14 00:23:16;;;;;;;9.32;2.03;;;12.50;98.90;;;;;;4234417;28;20049;-88
2022/06/14 00:25:26;;;;;;;15.88;2.50;;;12.50;98.90;;;;;;4234176;28;20040;-88
2022/06/14 00:27:26;;;;;;;12.63;2.45;;;12.50;98.90;;;;;;4234979;28;20376;-88
2022/06/14 00:29:28;;;;;;;10.65;1.92;;;12.50;98.80;;;;;;4234175;28;20047;-87
2022/06/14 00:31:30;;;;;;;10.63;2.22;;;12.50;98.90;;;;;;4234307;28;20067;-88
2022/06/14 00:33:32;;;;;;;8.10;1.42;;;12.50;98.70;;;;;;4233156;28;20093;-88
2022/06/14 00:35:34;;;;;;;7.50;1.80;;;12.50;98.80;;;;;;4233894;28;20048;-88
2022/06/14 00:37:38;;;;;;;9.32;2.28;;;12.50;98.80;;;;;;4233929;28;20383;-87
2022/06/14 00:39:38;;;;;;;17.02;2.15;;;12.40;98.90;;;;;;4234099;28;20044;-89
2022/06/14 00:41:45;;;;;;;16.48;2.28;;;12.40;99.00;;;;;;4234145;28;20040;-89
2022/06/14 00:43:46;;;;;;;9.70;3.03;;;12.40;98.90;;;;;;4234315;28;20048;-88
2022/06/14 00:45:48;;;;;;;5.32;1.50;;;12.40;99.00;;;;;;4234319;28;20043;-89
2022/06/14 00:48:02;;;;;;;6.45;1.65;;;12.40;99.00;;;;;;4232581;28;20102;-88
2022/06/14 00:50:06;;;;;;;6.60;1.67;;;12.50;99.20;;;;;;4235970;27;20055;-88
2022/06/14 00:52:37;;;;;;;5.82;2.35;;;12.40;99.00;;;;;;4237987;27;20175;-88
2022/06/14 00:54:44;;;;;;;10.98;2.38;;;12.40;99.10;;;;;;4236325;28;20047;-88
2022/06/14 00:56:52;;;;;;;10.75;2.83;;;12.40;99.00;;;;;;4238579;28;20047;-88
2022/06/14 00:59:01;;;;;;;7.50;1.85;;;12.30;99.10;;;;;;4241156;28;20074;-88
2022/06/14 01:01:07;;;;;;;5.72;1.70;;;12.30;99.30;;;;;;4240550;28;20058;-88
2022/06/14 01:03:18;;;;;;;5.78;2.10;;;12.30;99.50;;;;;;4240204;28;20047;-88
2022/06/14 01:07:58;;;;;;;12.00;3.13;;;12.20;99.70;;;;;;4233161;28;20086;-87
2022/06/14 01:10:12;;;;;;;9.25;2.05;;;12.20;99.70;;;;;;4236610;27;20055;-88
2022/06/14 01:12:19;;;;;;;8.77;2.08;;;12.20;99.90;;;;;;4231829;28;20491;-88
2022/06/14 01:14:25;;;;;;;11.80;3.70;;;12.20;99.90;;;;;;4251730;27;20051;-87
2022/06/14 01:16:26;;;;;;;5.07;2.00;;;12.10;99.90;;;;;;4250742;27;20131;-88
2022/06/14 01:18:28;;;;;;;8.25;2.53;;;12.10;99.90;;;;;;4233205;28;20420;-88
2022/06/14 01:20:29;;;;;;;8.05;1.85;;;12.00;99.90;;;;;;4250208;27;20043;-88
2022/06/14 01:22:32;;;;;;;12.52;2.70;;;12.00;99.90;;;;;;4250877;27;20031;-88
2022/06/14 01:24:34;;;;;;;10.20;2.00;;;12.00;99.90;;;;;;4251343;27;20139;-89
2022/06/14 01:26:35;;;;;;;5.22;2.17;;;12.00;99.90;;;;;;4233233;28;20511;-87
2022/06/14 01:28:37;;;;;;;12.82;2.38;;;12.00;99.90;;;;;;4250214;27;20118;-87
2022/06/14 01:30:45;;;;;;;8.38;2.58;;;12.00;99.90;;;;;;4230957;28;20412;-87
2022/06/14 01:32:50;;;;;;;9.80;2.75;;;11.90;99.90;;;;;;4249734;27;20071;-87
2022/06/14 01:34:54;;;;;;;6.20;2.08;;;11.90;99.90;;;;;;4250494;27;20050;-87
2022/06/14 01:36:55;;;;;;;9.15;2.15;;;11.90;99.90;;;;;;4251346;27;20043;-88
2022/06/14 01:38:59;;;;;;;3.83;1.65;;;11.80;99.90;;;;;;4243089;27;20044;-87
2022/06/14 01:41:06;;;;;;;12.05;2.33;;;11.80;99.90;;;;;;4232359;28;20082;-87
2022/06/14 01:43:48;;;;;;;10.07;2.20;;;11.80;99.90;;;;;;4214817;28;20420;-87
2022/06/14 01:46:23;;;;;;;10.23;2.40;;;11.80;99.90;;;;;;4232795;28;20047;-87
2022/06/14 01:48:42;;;;;;;20.58;3.33;;;11.70;99.90;;;;;;4232857;28;20035;-87
2022/06/14 01:54:02;;;;;;;10.00;2.90;;;11.70;99.90;;;;;;4232472;28;20055;-88
2022/06/14 01:56:23;;;;;;;7.20;2.20;;;11.70;99.90;;;;;;4214264;28;20059;-87
2022/06/14 01:58:33;;;;;;;7.70;1.55;;;11.70;99.90;;;;;;4233347;28;20047;-87
2022/06/14 02:00:40;;;;;;;;;;;11.70;99.90;;;;;;4234051;28;20415;-88
2022/06/14 02:06:08;;;;;;;13.40;2.72;;;11.60;99.90;;;;;;4200219;28;20059;-88
2022/06/14 02:08:20;;;;;;;7.53;2.28;;;11.50;99.90;;;;;;4232884;27;20111;-88
2022/06/14 02:10:45;;;;;;;11.07;2.17;;;11.50;99.90;;;;;;4233012;28;20091;-88
2022/06/14 02:13:10;;;;;;;9.77;2.85;;;11.50;99.90;;;;;;4234816;28;20104;-88
2022/06/14 02:15:40;;;;;;;7.28;1.67;;;11.40;99.90;;;;;;4232533;28;20044;-87
2022/06/14 02:17:54;;;;;;;18.13;2.53;;;11.50;99.90;;;;;;4227753;28;20883;-88
2022/06/14 02:20:07;;;;;;;8.35;3.05;;;11.50;99.90;;;;;;4232120;28;20069;-88
2022/06/14 02:22:27;;;;;;;9.30;2.22;;;11.50;99.90;;;;;;4232199;28;20169;-88
2022/06/14 02:24:48;;;;;;;6.57;1.88;;;11.50;99.90;;;;;;4230913;28;20044;-88
2022/06/14 02:26:58;;;;;;;15.43;1.70;;;11.50;99.90;;;;;;4232050;28;20050;-88
2022/06/14 02:29:14;;;;;;;7.35;1.45;;;11.40;99.90;;;;;;4231340;28;20118;-88
2022/06/14 02:31:34;;;;;;;9.55;1.90;;;11.40;99.90;;;;;;4231543;28;20122;-88
2022/06/14 02:33:44;;;;;;;13.18;2.00;;;11.40;99.90;;;;;;4231120;28;20043;-88
2022/06/14 02:35:53;;;;;;;8.57;1.70;;;11.30;99.90;;;;;;4231391;28;20092;-86
2022/06/14 02:38:09;;;;;;;7.57;2.10;;;11.30;99.90;;;;;;4231683;28;20047;-87
2022/06/14 02:40:20;;;;;;;9.43;1.98;;;11.40;99.90;;;;;;4213357;28;20127;-87
2022/06/14 02:42:55;;;;;;;4.90;1.40;;;11.30;99.90;;;;;;4231825;28;20063;-87
2022/06/14 02:45:17;;;;;;;10.35;2.00;;;11.40;99.90;;;;;;4231306;28;20047;-88
2022/06/14 02:47:32;;;;;;;9.43;1.73;;;11.40;99.90;;;;;;4231771;28;20083;-87
2022/06/14 02:49:43;;;;;;;8.55;1.73;;;11.30;99.90;;;;;;4231953;28;20039;-87
2022/06/14 02:51:43;;;;;;;6.85;1.60;;;11.30;99.90;;;;;;4214096;28;20419;-87
2022/06/14 02:53:48;;;;;;;11.95;2.40;;;11.30;99.90;;;;;;4214175;28;20054;-88
2022/06/14 02:56:09;;;;;;;10.43;2.38;;;11.30;99.90;;;;;;4231907;28;20043;-88
2022/06/14 02:58:28;;;;;;;11.13;2.22;;;11.30;99.90;;;;;;4232199;28;20051;-88
2022/06/14 03:00:49;;;;;;;9.38;1.75;;;11.30;99.90;;;;;;4232646;28;20078;-88
2022/06/14 03:03:06;;;;;;;9.32;2.30;;;11.20;99.90;;;;;;4213547;28;20476;-87
2022/06/14 03:05:10;;;;;;;7.20;2.15;;;11.20;99.90;;;;;;4231700;28;20055;-87
2022/06/14 03:07:17;;;;;;;13.43;2.72;;;11.20;99.90;;;;;;4231581;28;20039;-87
2022/06/14 03:09:23;;;;;;;6.35;1.85;;;11.20;99.90;;;;;;4231243;28;20047;-87
2022/06/14 03:11:58;;;;;;;8.43;1.90;;;11.20;99.90;;;;;;4231246;28;20390;-87
2022/06/14 03:14:07;;;;;;;14.20;2.15;;;11.20;99.90;;;;;;4231978;28;20071;-88
2022/06/14 03:16:35;;;;;;;8.00;2.00;;;11.20;99.90;;;;;;4215004;28;20048;-88
2022/06/14 03:19:01;;;;;;;13.45;2.67;;;11.20;99.90;;;;;;4221200;28;20134;-88
2022/06/14 03:21:17;;;;;;;8.93;1.85;;;11.20;99.90;;;;;;4232393;28;20054;-88
2022/06/14 03:23:22;;;;;;;6.53;2.00;;;11.20;99.90;;;;;;4214488;28;20048;-88
2022/06/14 03:25:44;;;;;;;15.70;2.72;;;11.20;99.90;;;;;;4232453;28;20071;-87
2022/06/14 03:28:01;;;;;;;12.45;2.22;;;11.10;99.90;;;;;;4232993;28;20079;-88
2022/06/14 03:30:10;;;;;;;13.85;2.83;;;11.10;99.90;;;;;;4232985;28;20071;-88
2022/06/14 03:32:20;;;;;;;12.95;2.05;;;11.10;99.90;;;;;;4232576;28;20051;-88
2022/06/14 03:34:26;;;;;;;8.35;1.98;;;11.20;99.90;;;;;;4231453;28;20130;-88
2022/06/14 03:36:28;;;;;;;6.07;1.73;;;11.20;99.90;;;;;;4232068;28;20496;-87
2022/06/14 03:38:54;;;;;;;8.07;2.03;;;11.20;99.90;;;;;;4232031;28;20119;-88
2022/06/14 03:40:56;;;;;;;8.32;1.88;;;11.20;99.90;;;;;;4231168;28;20040;-87
2022/06/14 03:43:00;;;;;;;10.48;2.92;;;11.20;99.90;;;;;;4213035;28;20118;-87
2022/06/14 03:45:03;;;;;;;7.10;2.38;;;11.20;99.90;;;;;;4233392;28;20111;-86
2022/06/14 03:47:10;;;;;;;10.30;2.42;;;11.20;99.90;;;;;;4233546;28;20052;-86
2022/06/14 03:49:15;;;;;;;7.63;2.28;;;11.20;99.90;;;;;;4233644;28;20051;-85
2022/06/14 03:51:37;;;;;;;9.60;2.05;;;11.30;99.90;;;;;;4214924;28;20126;-85
2022/06/14 03:53:58;;;;;;;10.48;2.20;;;11.20;99.90;;;;;;4233805;28;20052;-85
2022/06/14 03:56:17;;;;;;;11.07;2.17;;;11.20;99.90;;;;;;4233550;28;20048;-87
2022/06/14 03:58:36;;;;;;;7.00;1.50;;;11.20;99.90;;;;;;4234275;28;20039;-89
2022/06/14 04:01:15;;;;;;;9.15;1.90;;;11.30;99.90;;;;;;4235643;27;20047;-88
2022/06/14 04:03:34;;;;;;;;;;;11.30;99.90;;;;;;4248662;27;20123;-85
2022/06/14 04:05:40;;;;;;;6.57;2.00;;;11.30;99.90;;;;;;4214948;28;20364;-88
2022/06/14 04:08:01;;;;;;;6.82;1.63;;;11.30;99.90;;;;;;4232295;28;20074;-87
2022/06/14 04:10:30;;;;;;;9.27;2.42;;;11.30;99.90;;;;;;4203493;27;20051;-86
2022/06/14 04:12:30;;;;;;;7.10;2.50;;;11.40;99.90;;;;;;4232945;28;20055;-85
2022/06/14 04:14:41;;;;;;;10.70;2.45;;;12.20;99.90;;;;;;4251608;27;20046;-85
2022/06/14 04:17:08;;;;;;;7.05;2.30;;;11.40;99.90;;;;;;4240172;27;20055;-87
2022/06/14 04:19:39;;;;;;;8.55;2.15;;;11.30;99.90;;;;;;4230203;28;20048;-87
2022/06/14 04:21:56;;;;;;;10.68;2.95;;;11.40;99.90;;;;;;4234613;28;20039;-86
2022/06/14 04:24:16;;;;;;;8.60;2.03;;;11.40;99.90;;;;;;4234797;28;20502;-86
2022/06/14 04:26:32;;;;;;;6.38;1.88;;;11.40;99.90;;;;;;4234167;28;20145;-86
2022/06/14 04:29:06;;;;;;;10.07;1.75;;;11.40;99.90;;;;;;4242440;27;20122;-86
2022/06/14 04:31:14;;;;;;;8.13;2.15;;;11.50;99.90;;;;;;4251118;27;20476;-86
2022/06/14 04:33:19;;;;;;;13.90;1.85;;;11.50;99.90;;;;;;4251148;27;20043;-86
2022/06/14 04:35:27;;;;;;;12.27;3.58;;;11.60;99.90;;;;;;4250492;27;20062;-86
2022/06/14 04:37:40;;;;;;;8.07;1.98;;;11.60;99.90;;;;;;4251009;27;20471;-86
2022/06/14 04:39:50;;;;;;;9.95;1.65;;;11.60;99.90;;;;;;4250628;27;20426;-86
2022/06/14 04:42:17;;;;;;;9.65;2.33;;;11.70;99.90;;;;;;4250713;27;20061;-85
2022/06/14 04:44:39;;;;;;;7.03;1.63;;;11.70;99.90;;;;;;4239219;27;20055;-86
2022/06/14 04:46:51;;;;;;;6.68;1.88;;;11.80;99.90;;;;;;4231621;28;20044;-86
2022/06/14 04:48:59;;;;;;;9.52;2.45;;;11.80;99.90;;;;;;4250142;27;20039;-86
2022/06/14 04:51:18;;;;;;;11.50;2.05;;;11.90;99.90;;;;;;4250502;27;20071;-86
2022/06/14 04:53:38;;;;;;;3.75;1.67;;;11.90;99.90;;;;;;4250133;27;20039;-86
2022/06/14 04:55:52;;;;;;;9.02;1.90;;;12.00;99.90;;;;;;4249501;27;20039;-86
2022/06/14 04:58:09;;;;;;;8.38;2.53;;;12.00;99.90;;;;;;4249982;27;20043;-86
2022/06/14 05:00:14;;;;;;;10.15;2.03;;;12.10;99.90;;;;;;4250096;27;20069;-86
2022/06/14 05:02:50;;;;;;;13.25;2.53;;;12.10;99.90;;;;;;4250362;27;20109;-86
2022/06/14 05:04:56;;;;;;;11.02;2.17;;;12.20;99.90;;;;;;4249574;27;20148;-86
2022/06/14 05:07:16;;;;;;;8.57;1.50;;;12.10;99.90;;;;;;4250302;27;20070;-86
2022/06/14 05:09:22;;;;;;;7.95;2.10;;;12.30;99.90;;;;;;4250054;27;20152;-85
2022/06/14 05:11:53;;;;;;;7.53;2.05;;;12.30;99.90;;;;;;4250143;27;20055;-86
2022/06/14 05:14:01;;;;;;;8.07;1.85;;;12.30;99.90;;;;;;4252737;27;20054;-85
2022/06/14 05:16:08;;;;;;;9.52;2.20;;;12.40;99.90;;;;;;4250156;27;20046;-86
2022/06/14 05:18:39;;;;;;;9.52;2.65;;;12.40;99.90;;;;;;4231233;28;20048;-85
2022/06/14 05:20:51;;;;;;;9.25;2.42;;;12.40;99.90;;;;;;4240306;28;20078;-87
2022/06/14 05:23:16;;;;;;;5.40;1.63;;;12.50;99.90;;;;;;4263643;27;20045;-87
2022/06/14 05:25:17;;;;;;;8.38;1.80;;;12.50;99.90;;;;;;4263156;27;20043;-86
2022/06/14 05:27:27;;;;;;;5.57;1.95;;;12.60;99.90;;;;;;4262262;27;20047;-85
2022/06/14 05:29:57;;;;;;;7.63;1.50;;;12.60;99.90;;;;;;4263258;27;20046;-86
2022/06/14 05:32:24;;;;;;;8.18;1.63;;;12.60;99.90;;;;;;4253230;27;20055;-86
2022/06/14 05:34:28;;;;;;;11.90;3.20;;;12.70;99.90;;;;;;4228085;28;20047;-87
2022/06/14 05:36:36;;;;;;;5.78;1.77;;;12.70;99.90;;;;;;4231062;28;20047;-86
2022/06/14 05:38:47;;;;;;;8.45;2.35;;;12.70;99.90;;;;;;4245380;28;20055;-86
2022/06/14 05:40:54;;;;;;;5.97;1.50;;;12.70;99.90;;;;;;4256068;27;20039;-86
2022/06/14 05:43:04;;;;;;;6.15;1.40;;;12.80;99.90;;;;;;4250536;27;20096;-86
2022/06/14 05:45:07;;;;;;;8.23;2.05;;;12.80;99.90;;;;;;4250758;27;20047;-86
2022/06/14 05:47:19;;;;;;;8.27;1.63;;;12.90;99.90;;;;;;4249315;27;20039;-86
2022/06/14 05:49:25;;;;;;;7.13;1.40;;;12.90;99.90;;;;;;4249587;27;20043;-86
2022/06/14 05:51:53;;;;;;;6.55;1.60;;;13.00;99.90;;;;;;4214404;28;20119;-86
2022/06/14 05:54:22;;;;;;;9.40;1.48;;;13.00;99.90;;;;;;4249398;27;20077;-86
2022/06/14 05:56:28;;;;;;;7.28;2.00;;;13.00;99.90;;;;;;4249098;27;20080;-86
2022/06/14 05:58:34;;;;;;;9.02;2.47;;;13.10;99.90;;;;;;4249837;27;20043;-86
2022/06/14 06:00:49;;;;;;;6.55;1.33;;;13.10;99.90;;;;;;4249846;27;20501;-86
2022/06/14 06:03:07;;;;;;;7.40;2.05;;;13.10;99.90;;;;;;4249564;27;20049;-86
2022/06/14 06:05:12;;;;;;;11.77;1.75;;;13.20;99.90;;;;;;4249767;27;20092;-86
2022/06/14 06:07:19;;;;;;;6.50;1.50;;;13.30;99.90;;;;;;4248653;27;20126;-86
2022/06/14 06:09:28;;;;;;;4.80;1.83;;;13.20;99.90;;;;;;4213915;28;20070;-86
2022/06/14 06:11:32;;;;;;;5.95;1.92;;;13.30;99.90;;;;;;4249144;27;20062;-86
2022/06/14 06:13:55;;;;;;;7.15;1.77;;;13.40;99.90;;;;;;4249950;27;20047;-85
2022/06/14 06:16:03;;;;;;;5.07;1.60;;;13.40;99.90;;;;;;4249169;27;20088;-86
2022/06/14 06:18:14;;;;;;;10.82;1.98;;;13.60;99.90;;;;;;4248587;27;20078;-85
2022/06/14 06:20:32;;;;;;;7.88;1.83;;;13.60;99.90;;;;;;4248759;27;20054;-86
2022/06/14 06:22:49;;;;;;;8.32;1.63;;;13.70;99.90;;;;;;4249653;27;20039;-86
2022/06/14 06:25:00;;;;;;;8.15;1.88;;;13.80;99.90;;;;;;4249123;27;20043;-85
2022/06/14 06:27:08;;;;;;;6.85;2.92;;;13.90;99.90;;;;;;4249399;27;20051;-86
2022/06/14 06:29:21;;;;;;;7.50;2.00;;;14.10;99.90;;;;;;4230609;28;20047;-86
2022/06/14 06:31:27;;;;;;;6.32;1.33;;;14.20;99.90;;;;;;4248545;27;20082;-86
2022/06/14 06:33:32;;;;;;;6.95;1.45;;;14.30;99.90;;;;;;4248839;27;20043;-86
2022/06/14 06:35:49;;;;;;;6.72;1.40;;;14.40;99.90;;;;;;4248831;27;20043;-85
2022/06/14 06:37:59;;;;;;;8.95;2.40;;;14.50;99.90;;;;;;4250842;27;20043;-86
2022/06/14 06:40:26;;;;;;;3.88;2.00;;;14.60;99.90;;;;;;4248348;27;20520;-86
2022/06/14 06:42:32;;;;;;;5.13;1.83;;;14.70;99.90;;;;;;4248727;27;20160;-86
2022/06/14 06:45:22;;;;;;;3.70;1.27;;;14.90;99.90;;;;;;4248598;27;20053;-87
2022/06/14 06:47:31;;;;;;;9.70;1.55;;;15.00;99.90;;;;;;4208029;28;20059;-86
2022/06/14 06:49:48;;;;;;;7.90;1.48;;;15.10;99.90;;;;;;4248903;27;20047;-86
2022/06/14 06:51:54;;;;;;;4.20;1.50;;;15.20;99.90;;;;;;4230107;28;20039;-86
2022/06/14 06:54:04;;;;;;;5.70;1.48;;;15.30;99.80;;;;;;4232344;28;20519;-86
2022/06/14 06:56:17;;;;;;;7.35;2.05;;;15.30;99.70;;;;;;4230045;28;20082;-86
2022/06/14 06:58:27;;;;;;;6.55;1.92;;;15.40;99.70;;;;;;4248756;27;20043;-85
2022/06/14 07:00:31;;;;;;;7.38;1.58;;;15.50;99.50;;;;;;4248470;27;20066;-86
2022/06/14 07:02:44;;;;;;;9.95;1.50;;;15.70;99.50;;;;;;4248641;27;20164;-86
2022/06/14 07:05:03;;;;;;;8.65;1.80;;;15.80;99.10;;;;;;4248884;27;20388;-86
2022/06/14 07:07:04;;;;;;;5.60;1.20;;;15.80;99.00;;;;;;4229802;28;20112;-86
2022/06/14 07:09:32;;;;;;;5.90;1.35;;;16.00;98.90;;;;;;4248451;27;20046;-86
2022/06/14 07:11:34;;;;;;;3.70;1.25;;;;;;;;;;4248336;27;20077;-86
2022/06/14 07:13:38;;;;;;;8.50;1.40;;;;;;;;;;4249263;27;20054;-86
2022/06/14 07:15:42;;;;;;;4.97;1.30;;;;;;;;;;4248944;27;20042;-85
2022/06/14 07:17:48;;;;;;;4.00;1.55;;;;;;;;;;4248150;27;20047;-86
2022/06/14 07:19:49;;;;;;;4.00;1.00;;;;;;;;;;4247842;27;20479;-86
2022/06/14 07:21:55;;;;;;;6.03;1.48;;;16.10;98.80;;;;;;4249158;27;20055;-86
2022/06/14 07:24:46;;;;;;;2.95;1.13;;;16.70;97.10;;;;;;4248762;27;20047;-86
2022/06/14 07:26:52;;;;;;;2.67;1.20;;;16.70;96.30;;;;;;4242191;28;20503;-86
2022/06/14 07:29:09;;;;;;;4.25;1.10;;;16.80;96.50;;;;;;4250300;28;20047;-86
2022/06/14 07:31:21;;;;;;;7.15;1.58;;;16.90;96.10;;;;;;4232983;28;20055;-86
2022/06/14 07:33:25;;;;;;;9.35;2.38;;;17.00;95.50;;;;;;4215314;28;20080;-85
2022/06/14 07:35:27;;;;;;;6.28;1.20;;;;;;;;;;4232646;28;20047;-87
2022/06/14 07:37:34;;;;;;;6.75;1.73;;;;;;;;;;4250793;28;20047;-86
2022/06/14 07:39:40;;;;;;;6.63;1.30;;;;;;;;;;4250928;28;20129;-86
2022/06/14 07:41:51;;;;;;;4.68;1.55;;;;;;;;;;4253621;28;20080;-86
2022/06/14 07:44:01;;;;;;;3.08;1.33;;;17.10;95.60;;;;;;4254755;28;20503;-86
2022/06/14 07:46:13;;;;;;;5.22;1.35;;;17.80;94.50;;;;;;4262996;28;20064;-85
2022/06/14 07:48:17;;;;;;;6.30;2.40;;;;;;;;;;4262784;28;20047;-85
2022/06/14 07:50:40;;;;;;;3.25;1.02;;;17.80;94.10;;;;;;4253328;28;20372;-86
2022/06/14 07:52:52;;;;;;;4.10;0.80;;;18.10;93.40;;;;;;4254037;28;20061;-87
2022/06/14 07:55:01;;;;;;;4.82;0.82;;;18.30;93.00;;;;;;4238920;28;20044;-86
2022/06/14 07:57:29;;;;;;;4.57;1.23;;;18.40;92.80;;;;;;4233325;28;20044;-86
2022/06/14 07:59:41;;;;;;;6.90;1.10;;;18.60;91.90;;;;;;4248681;28;20058;-86
2022/06/14 08:01:51;;;;;;;4.15;0.82;;;18.60;91.80;;;;;;4248806;28;20043;-86
2022/06/14 08:04:21;;;;;;;3.08;1.15;;;18.70;91.60;;;;;;4248186;27;20047;-86
2022/06/14 08:06:32;;;;;;;4.78;0.82;;;18.80;91.00;;;;;;4248246;28;20103;-85
2022/06/14 08:08:36;;;;;;;3.45;1.23;;;18.80;90.90;;;;;;4248120;28;20050;-85
2022/06/14 08:10:44;;;;;;;5.28;0.85;;;19.00;90.80;;;;;;4247959;27;20100;-85
2022/06/14 08:13:00;;;;;;;2.33;0.90;;;18.90;90.20;;;;;;4248086;28;20074;-86
2022/06/14 08:15:14;;;;;;;4.82;1.50;;;18.80;89.60;;;;;;4248449;28;20082;-86
2022/06/14 08:17:26;;;;;;;3.67;0.93;;;18.60;88.60;;;;;;4230112;28;20051;-86
2022/06/14 08:19:30;;;;;;;3.58;0.88;;;18.50;88.50;;;;;;4247987;28;20490;-85
2022/06/14 08:21:42;;;;;;;3.08;0.90;;;18.60;89.10;;;;;;4248928;28;20542;-86
2022/06/14 08:23:57;;;;;;;2.97;0.90;;;18.80;88.70;;;;;;4248037;28;20122;-85
2022/06/14 08:26:23;;;;;;;4.68;0.80;;;19.10;88.30;;;;;;4247605;28;20050;-85
2022/06/14 08:28:37;;;;;;;2.83;0.73;;;19.50;88.00;;;;;;4247971;28;20067;-85
2022/06/14 08:30:50;;;;;;;1.40;0.88;;;19.70;87.60;;;;;;4248255;27;20036;-86
2022/06/14 08:33:02;;;;;;;4.35;0.95;;;19.80;85.70;;;;;;4250253;27;20503;-85
2022/06/14 08:35:09;;;;;;;4.10;0.90;;;19.70;84.60;;;;;;4251029;27;20099;-85
2022/06/14 08:37:32;;;;;;;6.05;1.38;;;19.60;85.10;;;;;;4251780;27;20055;-85
2022/06/14 08:39:37;;;;;;;5.43;0.90;;;19.70;85.80;;;;;;4251683;27;20036;-85
2022/06/14 08:41:51;;;;;;;3.45;0.90;;;20.10;85.20;;;;;;4250816;27;20461;-85
2022/06/14 08:44:22;;;;;;;5.28;1.40;;;20.40;84.60;;;;;;4250602;27;20103;-85
2022/06/14 08:47:00;;;;;;;4.75;0.60;;;20.80;83.10;;;;;;4207053;27;20059;-85
2022/06/14 08:49:30;;;;;;;3.70;1.15;;;21.20;80.60;;;;;;4215347;28;20047;-85
2022/06/14 08:51:46;;;;;;;3.08;0.60;;;21.40;77.70;;;;;;4250255;27;20860;-85
2022/06/14 08:54:17;;;;;;;5.75;1.05;;;21.20;77.60;;;;;;4250690;27;20081;-85
2022/06/14 08:56:21;;;;;;;2.05;0.68;;;21.00;77.20;;;;;;4251366;27;20480;-85
2022/06/14 08:58:39;;;;;;;4.93;0.93;;;21.20;78.80;;;;;;4252539;27;20043;-85
2022/06/14 09:00:55;;;;;;;5.95;1.10;;;21.40;77.20;;;;;;4234638;28;20102;-85
2022/06/14 09:03:30;;;;;;;2.45;0.90;;;21.50;75.50;;;;;;4253040;27;20078;-85
2022/06/14 09:05:48;;;;;;;5.72;1.25;;;21.90;74.80;;;;;;4252272;27;20100;-85
2022/06/14 09:08:10;;;;;;;5.55;1.55;;;21.80;75.70;;;;;;4252110;27;20114;-85
2022/06/14 09:10:56;;;;;;;2.17;0.60;;;21.10;76.00;;;;;;4251425;27;20051;-85
2022/06/14 09:13:28;;;;;;;1.83;0.85;;;20.90;74.40;;;;;;4231189;28;20047;-85
2022/06/14 09:16:06;;;;;;;1.00;0.60;;;21.00;74.00;;;;;;4231221;28;20040;-86
2022/06/14 09:18:42;;;;;;;1.60;1.00;;;21.30;72.80;;;;;;4249909;27;20047;-86
2022/06/14 09:21:12;;;;;;;2.13;0.90;;;22.00;71.50;;;;;;4243769;27;20039;-86
2022/06/14 09:23:19;;;;;;;3.88;0.70;;;;;;;;;;4249457;27;20048;-86
2022/06/14 09:25:20;;;;;;;6.47;1.63;;;;;;;;;;4249609;27;20051;-86
2022/06/14 09:27:24;;;;;;;3.72;1.20;;;;;;;;;;4249591;27;20180;-85
2022/06/14 09:29:25;;;;;;;2.03;0.52;;;;;;;;;;4249560;27;20043;-86
2022/06/14 09:32:23;;;;;;;3.03;0.70;;;21.60;70.60;;;;;;4249652;27;20039;-86
2022/06/14 09:35:01;;;;;;;2.30;0.70;;;23.10;68.20;;;;;;4163673;28;20041;-86
2022/06/14 09:37:35;;;;;;;3.00;0.70;;;23.10;65.30;;;;;;4163725;28;20462;-86
2022/06/14 09:39:59;;;;;;;7.93;0.90;;;22.90;66.30;;;;;;4190366;28;20051;-86
2022/06/14 09:42:21;;;;;;;5.13;1.02;;;22.50;65.60;;;;;;4248889;27;20115;-85
2022/06/14 09:44:59;;;;;;;3.33;0.80;;;21.90;65.10;;;;;;4251349;27;20372;-85
2022/06/14 09:47:38;;;;;;;1.10;0.70;;;21.50;64.70;;;;;;4249162;27;20555;-86
2022/06/14 09:50:00;;;;;;;3.35;0.65;;;21.20;69.90;;;;;;4192312;28;20059;-85
2022/06/14 09:52:10;;;;;;;1.27;0.70;;;21.20;70.00;;;;;;4248855;27;20036;-85
2022/06/14 09:54:29;;;;;;;3.13;0.80;;;21.10;69.60;;;;;;4249343;27;20043;-85
2022/06/14 09:56:48;;;;;;;2.15;0.82;;;21.00;70.20;;;;;;4248065;27;20092;-86
2022/06/14 09:59:27;;;;;;;1.70;0.57;;;21.00;69.20;;;;;;4230297;28;20044;-85
2022/06/14 10:01:38;;;;;;;;;;;21.00;68.00;;;;;;4249386;27;20475;-86
2022/06/14 10:04:04;;;;;;;1.48;0.73;;;21.10;69.60;;;;;;4230334;28;19966;-85
2022/06/14 10:06:23;;;;;;;4.20;0.70;;;21.40;71.20;;;;;;4248869;27;20054;-86
2022/06/14 10:08:39;;;;;;;2.20;0.80;;;21.60;68.30;;;;;;4248128;27;20071;-85
2022/06/14 10:10:57;;;;;;;2.00;0.70;;;21.60;68.20;;;;;;4229893;28;20589;-85
2022/06/14 10:13:28;;;;;;;3.22;0.80;;;21.50;69.10;;;;;;4229979;28;20126;-86
2022/06/14 10:15:32;;;;;;;3.92;0.80;;;21.50;67.50;;;;;;4230129;28;20059;-86
2022/06/14 10:17:56;;;;;;;1.75;0.55;;;21.40;69.10;;;;;;4248317;27;20092;-86
2022/06/14 10:20:10;;;;;;;4.55;1.10;;;21.30;67.80;;;;;;4247753;27;20463;-86
2022/06/14 10:22:36;;;;;;;3.13;1.20;;;21.10;69.80;;;;;;4249812;27;20039;-85
2022/06/14 10:25:00;;;;;;;7.25;1.75;;;21.00;69.30;;;;;;4248000;27;20047;-85
2022/06/14 10:29:52;;;;;;;3.92;0.98;;;20.50;70.00;;;;;;4247889;27;20412;-86
2022/06/14 10:31:56;;;;;;;5.07;0.90;;;20.30;71.20;;;;;;4229925;28;20032;-86
2022/06/14 10:34:06;;;;;;;2.30;0.95;;;20.20;71.80;;;;;;4247272;27;20054;-86
2022/06/14 10:36:28;;;;;;;5.22;1.95;;;20.10;72.20;;;;;;4248144;27;20162;-86
2022/06/14 10:38:50;;;;;;;2.95;0.75;;;20.10;71.60;;;;;;4248133;27;20085;-86
2022/06/14 10:41:00;;;;;;;3.28;0.93;;;20.00;72.60;;;;;;4248291;27;20092;-86
2022/06/14 10:43:18;;;;;;;6.28;1.58;;;20.00;72.40;;;;;;4247981;27;20051;-86
2022/06/14 10:45:28;;;;;;;3.60;0.80;;;19.90;72.40;;;;;;4248357;27;20112;-86
2022/06/14 10:47:47;;;;;;;4.80;0.85;;;19.90;72.70;;;;;;4248100;27;20403;-86
2022/06/14 10:50:07;;;;;;;3.70;0.93;;;19.80;72.80;;;;;;4248144;27;20118;-85
2022/06/14 10:52:29;;;;;;;3.13;0.80;;;19.80;72.20;;;;;;4247861;27;20043;-86
2022/06/14 10:54:56;;;;;;;4.55;1.58;;;19.80;74.60;;;;;;4247528;27;20050;-86
2022/06/14 10:57:14;;;;;;;2.90;1.23;;;19.70;74.80;;;;;;4229791;28;20099;-86
2022/06/14 10:59:50;;;;;;;6.15;1.13;;;19.70;75.70;;;;;;4247583;27;20093;-87
2022/06/14 11:02:15;;;;;;;2.40;1.13;;;19.60;77.60;;;;;;4248012;27;20043;-86
2022/06/14 11:04:25;;;;;;;3.35;1.30;;;19.60;78.00;;;;;;4247918;27;20092;-85
2022/06/14 11:06:42;;;;;;;4.50;1.00;;;19.50;78.10;;;;;;4248425;27;20043;-86
2022/06/14 11:09:01;;;;;;;4.43;1.00;;;19.50;78.80;;;;;;4229512;28;20547;-86
2022/06/14 11:11:38;;;;;;;3.95;1.10;;;19.50;79.00;;;;;;4229671;28;20404;-86
2022/06/14 11:14:13;;;;;;;4.55;1.02;;;19.50;80.70;;;;;;4248086;27;20054;-86
2022/06/14 11:16:20;;;;;;;3.58;1.33;;;19.50;80.60;;;;;;4229906;28;20054;-86
2022/06/14 11:18:55;;;;;;;3.22;1.05;;;19.50;80.30;;;;;;4247870;27;20051;-86
2022/06/14 11:21:07;;;;;;;6.65;1.27;;;19.50;81.00;;;;;;4229220;28;20043;-86
2022/06/14 11:23:18;;;;;;;2.60;1.10;;;19.70;81.30;;;;;;4248204;27;20039;-86
2022/06/14 11:25:42;;;;;;;2.78;1.20;;;19.50;82.00;;;;;;4248165;28;20485;-85
2022/06/14 11:27:50;;;;;;;5.70;1.25;;;19.60;81.50;;;;;;4248333;27;20071;-86
2022/06/14 11:30:14;;;;;;;3.40;1.05;;;19.60;81.90;;;;;;4248647;28;20039;-86
2022/06/14 11:32:22;;;;;;;7.22;1.27;;;19.60;81.80;;;;;;4248405;28;20038;-85
2022/06/14 11:34:44;;;;;;;6.70;1.08;;;19.60;82.70;;;;;;4247887;28;20043;-85
2022/06/14 11:37:12;;;;;;;6.00;1.33;;;19.70;82.70;;;;;;4247889;28;20463;-86
2022/06/14 11:39:23;;;;;;;4.90;1.27;;;19.80;81.60;;;;;;4229058;28;20050;-86
2022/06/14 11:41:25;;;;;;;4.32;1.63;;;20.00;81.30;;;;;;4230117;28;20063;-85
2022/06/14 11:43:34;;;;;;;4.38;1.40;;;19.90;81.20;;;;;;4248570;28;20050;-86
2022/06/14 11:45:57;;;;;;;4.82;1.73;;;19.90;80.80;;;;;;4247764;28;20039;-86
2022/06/14 11:48:07;;;;;;;8.15;2.00;;;19.90;80.40;;;;;;4248117;28;20073;-86
2022/06/14 11:50:11;;;;;;;3.95;1.15;;;20.00;80.80;;;;;;4247706;28;20407;-84
2022/06/14 11:52:27;;;;;;;6.38;1.67;;;20.00;80.80;;;;;;4229570;28;20107;-85
2022/06/14 11:54:53;;;;;;;5.57;1.58;;;20.20;80.30;;;;;;4248175;28;20043;-85